createdAt,value
2023-04-20T00:01:55.328Z,4.40
2023-04-20T00:04:23.545Z,6.10
2023-04-20T00:06:52.168Z,5.60
2023-04-20T00:09:22.868Z,6.40
2023-04-20T00:11:51.167Z,7.00
2023-04-20T00:14:19.921Z,5.70
2023-04-20T00:16:49.116Z,6.20
2023-04-20T00:19:18.004Z,6.20
2023-04-20T00:21:46.546Z,5.70
2023-04-20T00:24:14.792Z,6.40
2023-04-20T00:26:43.044Z,6.10
2023-04-20T00:29:11.761Z,6.70
2023-04-20T00:31:40.087Z,5.60
2023-04-20T00:34:08.288Z,6.30
2023-04-20T00:36:36.573Z,7.20
2023-04-20T00:39:05.908Z,6.40
2023-04-20T00:41:34.105Z,6.50
2023-04-20T00:44:02.430Z,6.00
2023-04-20T00:46:30.656Z,8.00
2023-04-20T00:48:59.545Z,5.80
2023-04-20T00:51:28.938Z,5.10
2023-04-20T00:53:57.644Z,5.70
2023-04-20T00:56:26.738Z,4.90
2023-04-20T00:58:55.488Z,5.90
2023-04-20T01:01:23.737Z,5.70
2023-04-20T01:03:52.449Z,6.20
2023-04-20T01:06:21.705Z,5.60
2023-04-20T01:08:51.874Z,5.50
2023-04-20T01:11:20.324Z,5.40
2023-04-20T01:13:50.029Z,5.90
2023-04-20T01:16:18.437Z,5.80
2023-04-20T01:18:49.542Z,5.50
2023-04-20T01:21:21.610Z,5.70
2023-04-20T01:23:50.258Z,5.10
2023-04-20T01:26:21.602Z,6.30
2023-04-20T01:28:52.041Z,6.50
2023-04-20T01:31:21.185Z,6.20
2023-04-20T01:33:50.165Z,5.60
2023-04-20T01:36:22.201Z,5.60
2023-04-20T01:38:51.528Z,6.20
2023-04-20T01:41:19.745Z,6.10
2023-04-20T01:43:48.038Z,5.60
2023-04-20T01:46:16.235Z,5.90
2023-04-20T01:48:44.543Z,6.00
2023-04-20T01:51:12.804Z,5.40
2023-04-20T01:53:41.944Z,5.90
2023-04-20T01:56:10.130Z,5.90
2023-04-20T01:58:38.325Z,5.80
2023-04-20T02:01:06.668Z,5.10
2023-04-20T02:03:35.339Z,5.90
2023-04-20T02:06:03.941Z,7.00
2023-04-20T02:08:33.583Z,4.90
2023-04-20T02:11:02.267Z,7.20
2023-04-20T02:13:30.578Z,7.00
2023-04-20T02:16:00.132Z,7.20
2023-04-20T02:18:30.456Z,6.20
2023-04-20T02:20:59.709Z,5.90
2023-04-20T02:23:29.203Z,6.30
2023-04-20T02:25:58.141Z,7.00
2023-04-20T02:28:26.589Z,6.60
2023-04-20T02:30:54.784Z,6.70
2023-04-20T02:33:23.188Z,7.10
2023-04-20T02:35:54.722Z,4.90
2023-04-20T02:38:22.930Z,7.00
2023-04-20T02:40:51.170Z,7.10
2023-04-20T02:43:19.526Z,6.70
2023-04-20T02:45:48.527Z,7.30
2023-04-20T02:48:16.870Z,6.80
2023-04-20T02:50:46.136Z,7.80
2023-04-20T02:53:23.491Z,6.80
2023-04-20T02:56:03.357Z,6.90
2023-04-20T02:58:43.873Z,6.40
2023-04-20T03:01:41.607Z,6.40
2023-04-20T03:04:14.072Z,6.80
2023-04-20T03:06:57.380Z,7.10
2023-04-20T03:09:29.141Z,6.70
2023-04-20T03:12:02.739Z,6.80
2023-04-20T03:14:50.237Z,6.80
2023-04-20T03:17:20.744Z,5.70
2023-04-20T03:19:49.035Z,6.60
2023-04-20T03:22:19.427Z,6.90
2023-04-20T03:24:50.799Z,7.40
2023-04-20T03:27:33.614Z,7.00
2023-04-20T03:30:11.813Z,7.10
2023-04-20T03:32:41.243Z,8.20
2023-04-20T03:35:10.405Z,7.50
2023-04-20T03:37:38.719Z,8.30
2023-04-20T03:40:10.388Z,6.80
2023-04-20T03:42:38.697Z,7.70
2023-04-20T03:45:07.666Z,7.80
2023-04-20T03:47:36.262Z,7.50
2023-04-20T03:50:04.995Z,7.60
2023-04-20T03:52:34.951Z,7.30
2023-04-20T03:55:06.128Z,7.50
2023-04-20T03:57:35.471Z,7.20
2023-04-20T04:00:04.974Z,6.90
2023-04-20T04:02:47.292Z,6.90
2023-04-20T04:05:20.385Z,7.30
2023-04-20T04:07:56.443Z,7.70
2023-04-20T04:10:25.030Z,7.30
2023-04-20T04:12:56.114Z,8.00
2023-04-20T04:15:24.447Z,7.00
2023-04-20T04:17:59.220Z,7.20
2023-04-20T04:20:28.276Z,8.10
2023-04-20T04:22:57.624Z,6.60
2023-04-20T04:25:46.356Z,8.60
2023-04-20T04:28:16.747Z,7.20
2023-04-20T04:30:52.549Z,7.60
2023-04-20T04:33:22.084Z,7.80
2023-04-20T04:35:51.364Z,8.20
2023-04-20T04:38:19.994Z,7.50
2023-04-20T04:40:53.019Z,7.90
2023-04-20T04:43:21.306Z,8.50
2023-04-20T04:45:58.748Z,8.50
2023-04-20T04:48:28.061Z,9.40
2023-04-20T04:50:57.393Z,9.00
2023-04-20T04:53:25.687Z,8.30
2023-04-20T04:55:54.044Z,8.30
2023-04-20T04:58:22.853Z,8.60
2023-04-20T05:00:51.907Z,8.90
2023-04-20T05:03:21.019Z,8.60
2023-04-20T05:05:49.483Z,8.80
2023-04-20T05:08:17.817Z,7.10
2023-04-20T05:10:46.546Z,9.50
2023-04-20T05:13:15.418Z,9.30
2023-04-20T05:15:44.373Z,9.60
2023-04-20T05:18:12.940Z,8.00
2023-04-20T05:20:41.296Z,9.60
2023-04-20T05:23:09.617Z,9.30
2023-04-20T05:25:38.082Z,8.50
2023-04-20T05:28:06.792Z,8.40
2023-04-20T05:30:36.459Z,8.80
2023-04-20T05:33:04.870Z,8.40
2023-04-20T05:35:33.248Z,9.30
2023-04-20T05:38:04.098Z,9.70
2023-04-20T05:40:35.059Z,8.80
2023-04-20T05:43:04.407Z,9.60
2023-04-20T05:45:34.509Z,8.90
2023-04-20T05:48:02.932Z,8.40
2023-04-20T05:50:31.479Z,8.20
2023-04-20T05:53:00.119Z,9.10
2023-04-20T05:55:28.378Z,12.50
2023-04-20T05:57:57.946Z,9.40
2023-04-20T06:00:26.460Z,9.40
2023-04-20T06:02:55.373Z,9.70
2023-04-20T06:05:24.006Z,9.60
2023-04-20T06:07:52.889Z,9.10
2023-04-20T06:10:21.205Z,8.80
2023-04-20T06:12:49.436Z,9.50
2023-04-20T06:15:17.800Z,8.70
2023-04-20T06:17:47.632Z,10.20
2023-04-20T06:20:16.994Z,8.70
2023-04-20T06:22:45.775Z,10.40
2023-04-20T06:25:15.042Z,8.90
2023-04-20T06:27:43.345Z,9.30
2023-04-20T06:30:12.861Z,10.10
2023-04-20T06:32:41.426Z,9.30
2023-04-20T06:35:09.973Z,8.80
2023-04-20T06:37:38.970Z,8.00
2023-04-20T06:40:10.884Z,9.50
2023-04-20T06:42:39.145Z,9.00
2023-04-20T06:45:08.338Z,10.10
2023-04-20T06:47:37.155Z,8.90
2023-04-20T06:50:09.373Z,9.30
2023-04-20T06:52:39.290Z,9.00
2023-04-20T06:55:08.894Z,8.80
2023-04-20T06:57:38.946Z,9.70
2023-04-20T07:00:09.948Z,8.60
2023-04-20T07:02:51.931Z,7.80
2023-04-20T07:05:20.473Z,8.80
2023-04-20T07:07:48.834Z,7.60
2023-04-20T07:10:17.209Z,8.00
2023-04-20T07:12:45.576Z,8.20
2023-04-20T07:15:14.157Z,7.70
2023-04-20T07:17:42.457Z,7.30
2023-04-20T07:20:11.387Z,7.30
2023-04-20T07:22:39.894Z,7.80
2023-04-20T07:25:10.466Z,6.80
2023-04-20T07:27:41.006Z,6.70
2023-04-20T07:30:11.017Z,6.80
2023-04-20T07:32:41.758Z,6.30
2023-04-20T07:35:10.472Z,5.90
2023-04-20T07:37:39.115Z,4.90
2023-04-20T07:40:08.355Z,5.90
2023-04-20T07:42:37.545Z,4.60
2023-04-20T07:45:10.555Z,4.90
2023-04-20T07:47:39.306Z,5.20
2023-04-20T07:50:09.585Z,4.80
2023-04-20T07:52:37.889Z,5.40
2023-04-20T07:55:08.362Z,4.60
2023-04-20T07:57:36.866Z,5.00
2023-04-20T08:00:10.565Z,4.10
2023-04-20T08:02:41.644Z,4.40
2023-04-20T08:05:11.758Z,3.70
2023-04-20T08:07:42.149Z,3.50
2023-04-20T08:10:11.451Z,3.10
2023-04-20T08:12:41.700Z,3.20
2023-04-20T08:15:11.050Z,2.70
2023-04-20T08:17:39.319Z,2.70
2023-04-20T08:20:10.830Z,3.10
2023-04-20T08:22:39.502Z,2.50
2023-04-20T08:25:08.367Z,3.20
2023-04-20T08:27:37.355Z,3.00
2023-04-20T08:30:06.781Z,3.40
2023-04-20T08:32:35.089Z,3.30
2023-04-20T08:35:04.831Z,3.80
2023-04-20T08:37:33.197Z,3.60
2023-04-20T08:40:01.743Z,3.80
2023-04-20T08:42:32.197Z,4.20
2023-04-20T08:45:01.997Z,4.00
2023-04-20T08:47:33.256Z,3.90
2023-04-20T08:50:05.493Z,3.90
2023-04-20T08:52:36.437Z,3.50
2023-04-20T08:55:04.896Z,3.90
2023-04-20T08:57:33.450Z,3.80
2023-04-20T09:00:05.786Z,5.00
2023-04-20T09:02:34.912Z,4.50
2023-04-20T09:05:06.115Z,4.50
2023-04-20T09:07:35.476Z,4.00
2023-04-20T09:10:06.025Z,5.00
2023-04-20T09:12:43.264Z,4.80
2023-04-20T09:15:11.775Z,4.70
2023-04-20T09:17:41.465Z,5.30
2023-04-20T09:20:11.633Z,4.90
2023-04-20T09:22:41.241Z,5.70
2023-04-20T09:25:17.995Z,5.10
2023-04-20T09:28:01.943Z,5.80
2023-04-20T09:30:45.635Z,5.80
2023-04-20T09:33:15.629Z,5.30
2023-04-20T09:35:46.142Z,5.30
2023-04-20T09:38:17.780Z,5.70
2023-04-20T09:40:46.822Z,5.00
2023-04-20T09:43:45.855Z,5.70
2023-04-20T09:46:17.874Z,4.70
2023-04-20T09:48:47.486Z,4.90
2023-04-20T09:51:16.781Z,5.30
2023-04-20T09:53:46.830Z,5.30
2023-04-20T09:56:16.857Z,5.30
2023-04-20T09:58:47.106Z,5.00
2023-04-20T10:01:15.673Z,4.50
2023-04-20T10:03:45.268Z,4.40
2023-04-20T10:06:26.502Z,3.70
2023-04-20T10:08:56.262Z,4.80
2023-04-20T10:11:52.636Z,3.30
2023-04-20T10:14:27.307Z,4.00
2023-04-20T10:17:05.919Z,3.50
2023-04-20T10:19:42.140Z,3.90
2023-04-20T10:22:13.952Z,4.00
2023-04-20T10:24:42.415Z,3.70
2023-04-20T10:27:21.322Z,4.10
2023-04-20T10:29:49.872Z,4.60
2023-04-20T10:32:24.924Z,4.90
2023-04-20T10:35:08.860Z,4.70
2023-04-20T10:37:51.017Z,4.80
2023-04-20T10:40:27.347Z,4.90
2023-04-20T10:42:55.914Z,4.80
2023-04-20T10:45:38.782Z,4.40
2023-04-20T10:48:09.412Z,4.50
2023-04-20T10:50:38.400Z,3.90
2023-04-20T10:53:17.379Z,3.70
2023-04-20T10:55:46.069Z,3.40
2023-04-20T10:58:26.846Z,3.00
2023-04-20T11:01:03.750Z,3.20
2023-04-20T11:03:37.223Z,3.20
2023-04-20T11:06:05.807Z,3.30
2023-04-20T11:08:39.471Z,2.50
2023-04-20T11:11:28.811Z,2.70
2023-04-20T11:14:09.445Z,3.00
2023-04-20T11:16:51.308Z,2.60
2023-04-20T11:19:39.532Z,3.00
2023-04-20T11:22:07.915Z,2.80
2023-04-20T11:24:41.480Z,3.20
2023-04-20T11:27:22.437Z,3.00
2023-04-20T11:29:58.654Z,2.90
2023-04-20T11:32:28.037Z,2.70
2023-04-20T11:35:08.344Z,2.20
2023-04-20T11:37:48.321Z,2.60
2023-04-20T11:40:17.589Z,2.90
2023-04-20T11:42:46.532Z,2.00
2023-04-20T11:45:15.988Z,2.40
2023-04-20T11:47:46.103Z,2.50
2023-04-20T11:50:15.557Z,2.90
2023-04-20T11:52:44.166Z,3.10
2023-04-20T11:55:13.665Z,2.40
2023-04-20T11:57:42.075Z,2.80
2023-04-20T12:00:10.897Z,2.40
2023-04-20T12:02:42.264Z,2.50
2023-04-20T12:05:12.013Z,2.60
2023-04-20T12:07:40.483Z,2.40
2023-04-20T12:10:09.357Z,1.60
2023-04-20T12:12:38.970Z,1.80
2023-04-20T12:15:08.443Z,1.90
2023-04-20T12:17:36.744Z,1.70
2023-04-20T12:20:09.053Z,1.60
2023-04-20T12:22:37.426Z,1.20
2023-04-20T12:25:06.969Z,1.40
2023-04-20T12:27:35.489Z,1.40
2023-04-20T12:30:04.800Z,0.70
2023-04-20T12:32:33.161Z,1.30
2023-04-20T12:35:01.739Z,0.90
2023-04-20T12:37:30.142Z,0.50
2023-04-20T12:39:58.873Z,0.80
2023-04-20T12:42:27.219Z,0.60
2023-04-20T12:44:56.453Z,0.60
2023-04-20T12:47:27.500Z,0.90
2023-04-20T12:49:56.419Z,0.60
2023-04-20T12:52:25.669Z,0.60
2023-04-20T12:54:53.936Z,0.90
2023-04-20T12:57:23.411Z,0.70
2023-04-20T12:59:52.214Z,1.10
2023-04-20T13:02:20.726Z,1.20
2023-04-20T13:04:49.742Z,1.10
2023-04-20T13:07:18.170Z,1.10
2023-04-20T13:09:46.726Z,0.80
2023-04-20T13:12:15.187Z,0.80
2023-04-20T13:14:47.473Z,0.50
2023-04-20T13:17:16.968Z,0.90
2023-04-20T13:19:50.245Z,0.70
2023-04-20T13:22:19.056Z,0.70
2023-04-20T13:24:47.679Z,0.60
2023-04-20T13:27:16.252Z,0.50
2023-04-20T13:29:47.784Z,0.80
2023-04-20T13:32:16.542Z,0.70
2023-04-20T13:34:44.858Z,1.00
2023-04-20T13:37:13.490Z,0.70
2023-04-20T13:39:42.447Z,0.80
2023-04-20T13:42:10.722Z,0.70
2023-04-20T13:44:39.812Z,0.60
2023-04-20T13:47:08.141Z,0.90
2023-04-20T13:49:39.477Z,0.70
2023-04-20T13:52:09.640Z,0.70
2023-04-20T13:54:39.174Z,0.70
2023-04-20T13:57:07.400Z,1.10
2023-04-20T13:59:38.777Z,0.90
2023-04-20T14:02:07.034Z,0.90
2023-04-20T14:04:35.409Z,0.80
2023-04-20T14:07:03.667Z,0.70
2023-04-20T14:09:32.585Z,0.90
2023-04-20T14:12:02.376Z,0.70
2023-04-20T14:14:30.632Z,1.00
2023-04-20T14:16:59.414Z,0.70
2023-04-20T14:19:27.809Z,0.80
2023-04-20T14:21:56.088Z,0.70
2023-04-20T14:24:24.330Z,0.70
2023-04-20T14:26:52.713Z,1.00
2023-04-20T14:29:21.339Z,0.80
2023-04-20T14:31:49.820Z,0.70
2023-04-20T14:34:18.369Z,0.90
2023-04-20T14:36:47.563Z,0.70
2023-04-20T14:39:16.329Z,0.70
2023-04-20T14:41:46.156Z,1.10
2023-04-20T14:44:14.512Z,1.20
2023-04-20T14:46:43.761Z,1.40
2023-04-20T14:49:12.038Z,1.50
2023-04-20T14:51:40.362Z,1.40
2023-04-20T14:54:10.298Z,1.90
2023-04-20T14:56:40.895Z,1.90
2023-04-20T14:59:10.273Z,1.70
2023-04-20T15:01:40.061Z,1.80
2023-04-20T15:04:13.853Z,1.70
2023-04-20T15:06:44.763Z,1.90
2023-04-20T15:09:15.029Z,2.10
2023-04-20T15:11:43.185Z,2.40
2023-04-20T15:14:12.189Z,2.60
2023-04-20T15:16:40.864Z,2.60
2023-04-20T15:19:12.776Z,3.00
2023-04-20T15:21:42.689Z,3.00
2023-04-20T15:24:11.998Z,2.90
2023-04-20T15:26:40.769Z,3.00
2023-04-20T15:29:09.529Z,3.10
2023-04-20T15:31:37.766Z,4.30
2023-04-20T15:34:06.622Z,3.40
2023-04-20T15:36:35.038Z,3.60
2023-04-20T15:39:04.035Z,4.20
2023-04-20T15:41:32.342Z,3.40
2023-04-20T15:44:00.596Z,5.30
2023-04-20T15:46:31.780Z,4.40
2023-04-20T15:49:00.150Z,3.90
2023-04-20T15:51:30.236Z,4.70
2023-04-20T15:53:58.513Z,4.30
2023-04-20T15:56:26.783Z,4.70
2023-04-20T15:58:55.299Z,4.70
2023-04-20T16:01:23.540Z,4.80
2023-04-20T16:03:52.056Z,3.10
2023-04-20T16:06:22.989Z,3.10
2023-04-20T16:08:56.852Z,3.60
2023-04-20T16:11:25.147Z,2.50
2023-04-20T16:14:00.135Z,2.50
2023-04-20T16:16:28.574Z,2.80
2023-04-20T16:18:57.169Z,3.40
2023-04-20T16:21:25.535Z,3.50
2023-04-20T16:23:57.202Z,3.10
2023-04-20T16:26:28.652Z,3.10
2023-04-20T16:28:57.457Z,3.60
2023-04-20T16:31:27.487Z,3.60
2023-04-20T16:33:56.473Z,3.80
2023-04-20T16:36:27.217Z,3.80
2023-04-20T16:38:55.506Z,3.70
2023-04-20T16:41:27.278Z,4.80
2023-04-20T16:43:56.333Z,4.50
2023-04-20T16:46:29.736Z,4.80
2023-04-20T16:49:00.414Z,4.00
2023-04-20T16:51:29.464Z,5.10
2023-04-20T16:53:57.730Z,5.80
2023-04-20T16:56:28.993Z,6.10
2023-04-20T16:58:58.110Z,4.60
2023-04-20T17:01:27.785Z,4.50
2023-04-20T17:03:59.928Z,5.80
2023-04-20T17:06:28.216Z,6.60
2023-04-20T17:09:05.606Z,6.50
2023-04-20T17:11:39.756Z,5.10
2023-04-20T17:14:08.961Z,6.10
2023-04-20T17:16:37.332Z,6.60
2023-04-20T17:19:05.802Z,6.30
2023-04-20T17:21:40.646Z,7.40
2023-04-20T17:24:08.828Z,6.40
2023-04-20T17:26:40.284Z,7.00
2023-04-20T17:29:10.463Z,6.40
2023-04-20T17:31:39.369Z,6.00
2023-04-20T17:34:08.193Z,5.70
2023-04-20T17:36:38.488Z,6.70
2023-04-20T17:39:07.137Z,6.50
2023-04-20T17:41:37.164Z,7.00
2023-04-20T17:44:05.756Z,7.20
2023-04-20T17:46:34.147Z,7.30
2023-04-20T17:49:03.753Z,6.40
2023-04-20T17:51:35.153Z,6.90
2023-04-20T17:54:03.829Z,7.00
2023-04-20T17:56:32.337Z,6.60
2023-04-20T17:59:00.684Z,6.50
2023-04-20T18:01:34.505Z,7.60
2023-04-20T18:04:04.194Z,6.50
2023-04-20T18:06:33.904Z,7.00
2023-04-20T18:09:04.994Z,6.00
2023-04-20T18:11:33.247Z,5.70
2023-04-20T18:14:01.573Z,6.10
2023-04-20T18:16:29.811Z,5.40
2023-04-20T18:18:58.138Z,6.30
2023-04-20T18:21:29.945Z,5.80
2023-04-20T18:23:58.195Z,6.00
2023-04-20T18:26:26.363Z,6.50
2023-04-20T18:28:54.667Z,7.00
2023-04-20T18:31:23.037Z,6.40
2023-04-20T18:33:51.284Z,6.20
2023-04-20T18:36:19.500Z,7.10
2023-04-20T18:38:47.822Z,8.00
2023-04-20T18:41:17.202Z,6.50
2023-04-20T18:43:45.813Z,5.40
2023-04-20T18:46:18.098Z,5.70
2023-04-20T18:48:47.975Z,5.30
2023-04-20T18:51:18.640Z,6.60
2023-04-20T18:53:48.038Z,4.80
2023-04-20T18:56:16.508Z,6.60
2023-04-20T18:58:46.143Z,5.00
2023-04-20T19:01:14.935Z,4.70
2023-04-20T19:03:47.177Z,5.00
2023-04-20T19:06:18.303Z,4.80
2023-04-20T19:08:46.943Z,5.10
2023-04-20T19:11:16.237Z,6.20
2023-04-20T19:13:45.536Z,5.70
2023-04-20T19:16:13.958Z,7.20
2023-04-20T19:18:43.887Z,4.70
2023-04-20T19:21:14.678Z,4.20
2023-04-20T19:23:43.001Z,5.20
2023-04-20T19:26:11.252Z,3.40
2023-04-20T19:28:40.915Z,3.40
2023-04-20T19:31:11.150Z,3.50
2023-04-20T19:33:40.478Z,2.80
2023-04-20T19:36:08.763Z,3.60
2023-04-20T19:38:38.802Z,2.70
2023-04-20T19:41:07.605Z,3.20
2023-04-20T19:43:37.767Z,3.30
2023-04-20T19:46:09.992Z,3.10
2023-04-20T19:48:41.156Z,3.40
2023-04-20T19:51:12.584Z,3.20
2023-04-20T19:53:41.673Z,3.10
2023-04-20T19:56:12.222Z,2.70
2023-04-20T19:58:40.548Z,2.60
2023-04-20T20:01:08.795Z,2.90
2023-04-20T20:03:37.423Z,2.90
2023-04-20T20:06:08.855Z,3.60
2023-04-20T20:08:37.353Z,3.40
2023-04-20T20:11:05.700Z,2.90
2023-04-20T20:13:33.896Z,3.20
2023-04-20T20:16:04.316Z,3.50
2023-04-20T20:18:32.649Z,3.20
2023-04-20T20:21:01.556Z,3.70
2023-04-20T20:23:32.433Z,4.10
2023-04-20T20:26:03.430Z,3.00
2023-04-20T20:28:31.720Z,3.00
2023-04-20T20:31:00.031Z,3.00
2023-04-20T20:33:28.590Z,3.10
2023-04-20T20:35:58.285Z,3.40
2023-04-20T20:38:26.692Z,4.80
2023-04-20T20:40:55.118Z,3.30
2023-04-20T20:43:25.666Z,4.00
2023-04-20T20:45:54.025Z,4.00
2023-04-20T20:48:24.995Z,4.10
2023-04-20T20:50:53.168Z,3.90
2023-04-20T20:53:22.952Z,3.70
2023-04-20T20:55:51.336Z,3.60
2023-04-20T20:58:19.587Z,2.80
2023-04-20T21:00:48.159Z,4.10
2023-04-20T21:03:16.583Z,3.00
2023-04-20T21:05:45.131Z,3.70
2023-04-20T21:08:13.327Z,3.90
2023-04-20T21:10:41.559Z,4.70
2023-04-20T21:13:09.857Z,3.60
2023-04-20T21:15:38.022Z,4.50
2023-04-20T21:18:06.479Z,4.10
2023-04-20T21:20:34.772Z,4.70
2023-04-20T21:23:03.046Z,3.70
2023-04-20T21:25:31.239Z,4.10
2023-04-20T21:27:59.457Z,4.50
2023-04-20T21:30:28.478Z,4.40
2023-04-20T21:32:56.779Z,4.20
2023-04-20T21:35:25.043Z,4.50
2023-04-20T21:37:56.412Z,5.00
2023-04-20T21:40:25.534Z,4.10
2023-04-20T21:42:53.802Z,4.30
2023-04-20T21:45:22.005Z,4.90
2023-04-20T21:47:50.228Z,5.00
2023-04-20T21:50:18.891Z,4.50
2023-04-20T21:52:47.081Z,4.90
2023-04-20T21:55:15.264Z,4.50
2023-04-20T21:57:43.409Z,4.40
2023-04-20T22:00:12.402Z,3.20
2023-04-20T22:02:43.266Z,4.30
2023-04-20T22:05:11.994Z,5.40
2023-04-20T22:07:40.370Z,4.60
2023-04-20T22:10:09.348Z,3.70
2023-04-20T22:12:40.909Z,4.10
2023-04-20T22:15:13.878Z,3.80
2023-04-20T22:17:45.526Z,4.30
2023-04-20T22:20:15.961Z,4.40
2023-04-20T22:22:44.199Z,4.10
2023-04-20T22:25:12.792Z,3.80
2023-04-20T22:27:42.347Z,3.90
2023-04-20T22:30:14.144Z,3.50
2023-04-20T22:32:42.408Z,4.00
2023-04-20T22:35:10.668Z,5.30
2023-04-20T22:37:38.953Z,4.30
2023-04-20T22:40:08.273Z,3.20
2023-04-20T22:42:36.548Z,4.20
2023-04-20T22:45:05.463Z,3.70
2023-04-20T22:47:34.268Z,4.30
2023-04-20T22:50:03.505Z,3.40
2023-04-20T22:52:32.532Z,4.60
2023-04-20T22:55:00.997Z,3.80
2023-04-20T22:57:29.241Z,3.20
2023-04-20T22:59:57.428Z,3.00
2023-04-20T23:02:25.967Z,4.40
2023-04-20T23:04:54.328Z,3.90
2023-04-20T23:07:22.513Z,4.30
2023-04-20T23:09:51.146Z,4.50
2023-04-20T23:12:20.947Z,3.30
2023-04-20T23:14:51.177Z,4.30
2023-04-20T23:17:19.540Z,3.50
2023-04-20T23:19:47.749Z,3.70
2023-04-20T23:22:17.152Z,4.00
2023-04-20T23:24:45.626Z,3.90
2023-04-20T23:27:13.872Z,2.90
2023-04-20T23:29:43.342Z,3.50
2023-04-20T23:32:13.812Z,3.90
2023-04-20T23:34:44.774Z,4.30
2023-04-20T23:37:13.677Z,3.30
2023-04-20T23:39:41.909Z,3.00
2023-04-20T23:42:10.134Z,3.50
2023-04-20T23:44:38.394Z,3.60
2023-04-20T23:47:06.553Z,3.50
2023-04-20T23:49:35.268Z,3.50
2023-04-20T23:52:04.760Z,4.30
2023-04-20T23:54:33.531Z,3.20
2023-04-20T23:57:03.599Z,3.10
2023-04-20T23:59:31.840Z,3.30
